sensor_id;sensor_type;location;lat;lon;timestamp;P1;durP1;ratioP1;P2;durP2;ratioP2
50291;SDS011;36190;54.980;73.388;2023-07-31T00:00:31;10.95;;;7.05;;
50291;SDS011;36190;54.980;73.388;2023-07-31T00:02:59;13.32;;;7.65;;
50291;SDS011;36190;54.980;73.388;2023-07-31T00:05:26;15.25;;;7.55;;
50291;SDS011;36190;54.980;73.388;2023-07-31T00:07:54;13.10;;;7.22;;
50291;SDS011;36190;54.980;73.388;2023-07-31T00:10:21;12.65;;;7.38;;
50291;SDS011;36190;54.980;73.388;2023-07-31T00:12:49;12.30;;;6.85;;
50291;SDS011;36190;54.980;73.388;2023-07-31T00:15:16;13.00;;;7.35;;
50291;SDS011;36190;54.980;73.388;2023-07-31T00:17:45;12.68;;;7.55;;
50291;SDS011;36190;54.980;73.388;2023-07-31T00:20:13;13.85;;;7.85;;
50291;SDS011;36190;54.980;73.388;2023-07-31T00:22:40;12.27;;;7.25;;
50291;SDS011;36190;54.980;73.388;2023-07-31T00:25:08;11.88;;;7.32;;
50291;SDS011;36190;54.980;73.388;2023-07-31T00:27:35;12.27;;;7.43;;
50291;SDS011;36190;54.980;73.388;2023-07-31T00:30:03;14.43;;;7.53;;
50291;SDS011;36190;54.980;73.388;2023-07-31T00:32:31;15.90;;;9.50;;
50291;SDS011;36190;54.980;73.388;2023-07-31T00:35:00;18.75;;;10.48;;
50291;SDS011;36190;54.980;73.388;2023-07-31T00:37:28;20.38;;;11.07;;
50291;SDS011;36190;54.980;73.388;2023-07-31T00:39:55;18.08;;;11.63;;
50291;SDS011;36190;54.980;73.388;2023-07-31T00:42:23;20.73;;;13.18;;
50291;SDS011;36190;54.980;73.388;2023-07-31T00:44:51;22.10;;;12.95;;
50291;SDS011;36190;54.980;73.388;2023-07-31T00:47:18;21.30;;;12.98;;
50291;SDS011;36190;54.980;73.388;2023-07-31T00:49:46;19.65;;;11.95;;
50291;SDS011;36190;54.980;73.388;2023-07-31T00:52:16;23.35;;;12.75;;
50291;SDS011;36190;54.980;73.388;2023-07-31T00:54:45;24.83;;;12.77;;
50291;SDS011;36190;54.980;73.388;2023-07-31T00:57:12;23.50;;;12.50;;
50291;SDS011;36190;54.980;73.388;2023-07-31T00:59:40;20.23;;;12.52;;
50291;SDS011;36190;54.980;73.388;2023-07-31T01:02:07;22.55;;;13.05;;
50291;SDS011;36190;54.980;73.388;2023-07-31T01:04:35;22.88;;;13.77;;
50291;SDS011;36190;54.980;73.388;2023-07-31T01:07:03;20.25;;;12.77;;
50291;SDS011;36190;54.980;73.388;2023-07-31T01:09:40;23.65;;;12.73;;
50291;SDS011;36190;54.980;73.388;2023-07-31T01:12:13;20.05;;;13.35;;
50291;SDS011;36190;54.980;73.388;2023-07-31T01:14:50;21.38;;;12.88;;
50291;SDS011;36190;54.980;73.388;2023-07-31T01:17:18;20.08;;;11.80;;
50291;SDS011;36190;54.980;73.388;2023-07-31T01:19:46;18.83;;;11.02;;
50291;SDS011;36190;54.980;73.388;2023-07-31T01:22:30;19.73;;;11.23;;
50291;SDS011;36190;54.980;73.388;2023-07-31T01:25:32;21.05;;;11.77;;
50291;SDS011;36190;54.980;73.388;2023-07-31T01:28:23;18.75;;;12.10;;
50291;SDS011;36190;54.980;73.388;2023-07-31T01:30:56;22.40;;;14.18;;
50291;SDS011;36190;54.980;73.388;2023-07-31T01:33:26;28.40;;;14.73;;
50291;SDS011;36190;54.980;73.388;2023-07-31T01:35:55;33.22;;;18.17;;
50291;SDS011;36190;54.980;73.388;2023-07-31T01:38:23;31.42;;;16.58;;
50291;SDS011;36190;54.980;73.388;2023-07-31T01:40:51;31.30;;;17.25;;
50291;SDS011;36190;54.980;73.388;2023-07-31T01:43:20;34.08;;;17.52;;
50291;SDS011;36190;54.980;73.388;2023-07-31T01:45:48;30.77;;;17.52;;
50291;SDS011;36190;54.980;73.388;2023-07-31T01:48:15;37.13;;;18.35;;
50291;SDS011;36190;54.980;73.388;2023-07-31T01:50:43;32.67;;;18.65;;
50291;SDS011;36190;54.980;73.388;2023-07-31T01:53:10;30.50;;;17.80;;
50291;SDS011;36190;54.980;73.388;2023-07-31T01:55:39;32.20;;;19.13;;
50291;SDS011;36190;54.980;73.388;2023-07-31T01:58:06;31.67;;;18.00;;
50291;SDS011;36190;54.980;73.388;2023-07-31T02:00:35;33.17;;;17.83;;
50291;SDS011;36190;54.980;73.388;2023-07-31T02:03:02;30.17;;;16.58;;
50291;SDS011;36190;54.980;73.388;2023-07-31T02:05:30;32.42;;;16.92;;
50291;SDS011;36190;54.980;73.388;2023-07-31T02:07:57;28.63;;;15.68;;
50291;SDS011;36190;54.980;73.388;2023-07-31T02:10:25;26.05;;;16.02;;
50291;SDS011;36190;54.980;73.388;2023-07-31T02:12:52;29.33;;;16.52;;
50291;SDS011;36190;54.980;73.388;2023-07-31T02:15:20;34.83;;;17.17;;
50291;SDS011;36190;54.980;73.388;2023-07-31T02:17:49;30.92;;;16.50;;
50291;SDS011;36190;54.980;73.388;2023-07-31T02:20:16;28.13;;;15.70;;
50291;SDS011;36190;54.980;73.388;2023-07-31T02:22:44;25.95;;;14.43;;
50291;SDS011;36190;54.980;73.388;2023-07-31T02:25:10;30.42;;;15.32;;
50291;SDS011;36190;54.980;73.388;2023-07-31T02:27:38;30.83;;;15.27;;
50291;SDS011;36190;54.980;73.388;2023-07-31T02:30:06;22.98;;;14.93;;
50291;SDS011;36190;54.980;73.388;2023-07-31T02:32:34;29.25;;;15.38;;
50291;SDS011;36190;54.980;73.388;2023-07-31T02:35:03;29.77;;;15.77;;
50291;SDS011;36190;54.980;73.388;2023-07-31T02:37:33;27.83;;;16.23;;
50291;SDS011;36190;54.980;73.388;2023-07-31T02:40:01;28.10;;;16.38;;
50291;SDS011;36190;54.980;73.388;2023-07-31T02:42:28;33.15;;;15.93;;
50291;SDS011;36190;54.980;73.388;2023-07-31T02:44:56;29.85;;;15.02;;
50291;SDS011;36190;54.980;73.388;2023-07-31T02:47:23;31.00;;;16.08;;
50291;SDS011;36190;54.980;73.388;2023-07-31T02:49:51;31.15;;;17.10;;
50291;SDS011;36190;54.980;73.388;2023-07-31T02:52:19;29.85;;;16.67;;
50291;SDS011;36190;54.980;73.388;2023-07-31T02:54:47;31.15;;;17.38;;
50291;SDS011;36190;54.980;73.388;2023-07-31T02:57:14;34.67;;;17.85;;
50291;SDS011;36190;54.980;73.388;2023-07-31T02:59:42;29.13;;;15.80;;
50291;SDS011;36190;54.980;73.388;2023-07-31T03:02:10;28.45;;;15.82;;
50291;SDS011;36190;54.980;73.388;2023-07-31T03:04:38;27.45;;;15.38;;
50291;SDS011;36190;54.980;73.388;2023-07-31T03:07:05;39.90;;;16.17;;
50291;SDS011;36190;54.980;73.388;2023-07-31T03:09:34;26.20;;;14.80;;
50291;SDS011;36190;54.980;73.388;2023-07-31T03:12:02;36.00;;;15.15;;
50291;SDS011;36190;54.980;73.388;2023-07-31T03:14:29;28.08;;;15.07;;
50291;SDS011;36190;54.980;73.388;2023-07-31T03:16:57;27.60;;;13.52;;
50291;SDS011;36190;54.980;73.388;2023-07-31T03:19:24;28.55;;;15.55;;
50291;SDS011;36190;54.980;73.388;2023-07-31T03:21:52;31.63;;;14.93;;
50291;SDS011;36190;54.980;73.388;2023-07-31T03:24:19;28.98;;;13.80;;
50291;SDS011;36190;54.980;73.388;2023-07-31T03:26:48;28.65;;;15.38;;
50291;SDS011;36190;54.980;73.388;2023-07-31T03:29:16;20.30;;;9.55;;
50291;SDS011;36190;54.980;73.388;2023-07-31T03:31:43;15.52;;;8.20;;
50291;SDS011;36190;54.980;73.388;2023-07-31T03:34:10;15.88;;;7.78;;
50291;SDS011;36190;54.980;73.388;2023-07-31T03:36:38;17.27;;;8.57;;
50291;SDS011;36190;54.980;73.388;2023-07-31T03:39:05;17.13;;;8.18;;
50291;SDS011;36190;54.980;73.388;2023-07-31T03:41:33;12.38;;;7.03;;
50291;SDS011;36190;54.980;73.388;2023-07-31T03:44:02;14.18;;;7.53;;
50291;SDS011;36190;54.980;73.388;2023-07-31T03:46:30;13.45;;;7.75;;
50291;SDS011;36190;54.980;73.388;2023-07-31T03:48:57;12.30;;;7.55;;
50291;SDS011;36190;54.980;73.388;2023-07-31T03:51:24;13.55;;;7.60;;
50291;SDS011;36190;54.980;73.388;2023-07-31T03:53:52;15.02;;;8.25;;
50291;SDS011;36190;54.980;73.388;2023-07-31T03:56:19;17.35;;;9.00;;
50291;SDS011;36190;54.980;73.388;2023-07-31T03:58:47;14.82;;;9.13;;
50291;SDS011;36190;54.980;73.388;2023-07-31T04:01:16;13.65;;;8.18;;
50291;SDS011;36190;54.980;73.388;2023-07-31T04:03:44;17.13;;;9.27;;
50291;SDS011;36190;54.980;73.388;2023-07-31T04:06:12;14.38;;;8.45;;
50291;SDS011;36190;54.980;73.388;2023-07-31T04:08:43;13.70;;;7.82;;
50291;SDS011;36190;54.980;73.388;2023-07-31T04:11:10;13.23;;;7.63;;
50291;SDS011;36190;54.980;73.388;2023-07-31T04:13:38;15.00;;;8.73;;
50291;SDS011;36190;54.980;73.388;2023-07-31T04:16:05;13.95;;;8.50;;
50291;SDS011;36190;54.980;73.388;2023-07-31T04:18:34;13.65;;;7.25;;
50291;SDS011;36190;54.980;73.388;2023-07-31T04:21:02;11.90;;;7.00;;
50291;SDS011;36190;54.980;73.388;2023-07-31T04:23:29;14.93;;;7.72;;
50291;SDS011;36190;54.980;73.388;2023-07-31T04:25:57;11.60;;;7.45;;
50291;SDS011;36190;54.980;73.388;2023-07-31T04:28:32;10.93;;;6.80;;
50291;SDS011;36190;54.980;73.388;2023-07-31T04:30:59;10.93;;;6.57;;
50291;SDS011;36190;54.980;73.388;2023-07-31T04:33:27;13.15;;;7.40;;
50291;SDS011;36190;54.980;73.388;2023-07-31T04:35:55;11.45;;;7.60;;
50291;SDS011;36190;54.980;73.388;2023-07-31T04:38:24;12.93;;;7.90;;
50291;SDS011;36190;54.980;73.388;2023-07-31T04:40:51;12.23;;;7.13;;
50291;SDS011;36190;54.980;73.388;2023-07-31T04:43:19;10.55;;;6.57;;
50291;SDS011;36190;54.980;73.388;2023-07-31T04:45:47;12.52;;;7.10;;
50291;SDS011;36190;54.980;73.388;2023-07-31T04:48:15;12.07;;;7.45;;
50291;SDS011;36190;54.980;73.388;2023-07-31T04:50:43;12.55;;;7.07;;
50291;SDS011;36190;54.980;73.388;2023-07-31T04:53:12;10.65;;;7.43;;
50291;SDS011;36190;54.980;73.388;2023-07-31T04:55:39;12.75;;;8.18;;
50291;SDS011;36190;54.980;73.388;2023-07-31T04:58:07;11.50;;;6.68;;
50291;SDS011;36190;54.980;73.388;2023-07-31T05:00:34;10.85;;;6.55;;
50291;SDS011;36190;54.980;73.388;2023-07-31T05:03:01;11.00;;;6.57;;
50291;SDS011;36190;54.980;73.388;2023-07-31T05:05:30;11.50;;;6.53;;
50291;SDS011;36190;54.980;73.388;2023-07-31T05:07:57;13.10;;;7.30;;
50291;SDS011;36190;54.980;73.388;2023-07-31T05:10:26;13.23;;;6.63;;
50291;SDS011;36190;54.980;73.388;2023-07-31T05:12:54;10.38;;;6.43;;
50291;SDS011;36190;54.980;73.388;2023-07-31T05:15:21;10.43;;;6.72;;
50291;SDS011;36190;54.980;73.388;2023-07-31T05:17:49;11.55;;;6.63;;
50291;SDS011;36190;54.980;73.388;2023-07-31T05:20:16;11.55;;;6.38;;
50291;SDS011;36190;54.980;73.388;2023-07-31T05:22:44;11.68;;;7.20;;
50291;SDS011;36190;54.980;73.388;2023-07-31T05:25:11;9.55;;;5.38;;
50291;SDS011;36190;54.980;73.388;2023-07-31T05:27:40;12.18;;;6.70;;
50291;SDS011;36190;54.980;73.388;2023-07-31T05:30:08;12.45;;;6.78;;
50291;SDS011;36190;54.980;73.388;2023-07-31T05:32:35;10.35;;;6.32;;
50291;SDS011;36190;54.980;73.388;2023-07-31T05:35:03;9.77;;;5.78;;
50291;SDS011;36190;54.980;73.388;2023-07-31T05:37:31;10.10;;;6.22;;
50291;SDS011;36190;54.980;73.388;2023-07-31T05:39:59;10.73;;;6.50;;
50291;SDS011;36190;54.980;73.388;2023-07-31T05:42:26;11.35;;;5.97;;
50291;SDS011;36190;54.980;73.388;2023-07-31T05:44:55;10.45;;;6.22;;
50291;SDS011;36190;54.980;73.388;2023-07-31T05:47:23;10.95;;;6.35;;
50291;SDS011;36190;54.980;73.388;2023-07-31T05:49:50;10.48;;;6.75;;
50291;SDS011;36190;54.980;73.388;2023-07-31T05:52:18;11.00;;;6.20;;
50291;SDS011;36190;54.980;73.388;2023-07-31T05:54:45;11.52;;;7.00;;
50291;SDS011;36190;54.980;73.388;2023-07-31T05:57:13;11.95;;;7.10;;
50291;SDS011;36190;54.980;73.388;2023-07-31T05:59:40;12.20;;;6.38;;
50291;SDS011;36190;54.980;73.388;2023-07-31T06:02:09;10.27;;;6.20;;
50291;SDS011;36190;54.980;73.388;2023-07-31T06:04:37;11.18;;;6.38;;
50291;SDS011;36190;54.980;73.388;2023-07-31T06:07:04;11.18;;;6.30;;
50291;SDS011;36190;54.980;73.388;2023-07-31T06:09:32;11.35;;;6.57;;
50291;SDS011;36190;54.980;73.388;2023-07-31T06:11:59;10.98;;;5.93;;
50291;SDS011;36190;54.980;73.388;2023-07-31T06:14:27;10.18;;;5.85;;
50291;SDS011;36190;54.980;73.388;2023-07-31T06:16:54;10.70;;;6.22;;
50291;SDS011;36190;54.980;73.388;2023-07-31T06:19:23;11.32;;;6.82;;
50291;SDS011;36190;54.980;73.388;2023-07-31T06:21:50;11.45;;;6.60;;
50291;SDS011;36190;54.980;73.388;2023-07-31T06:24:18;12.68;;;6.22;;
50291;SDS011;36190;54.980;73.388;2023-07-31T06:26:46;10.57;;;6.10;;
50291;SDS011;36190;54.980;73.388;2023-07-31T06:29:13;10.35;;;6.30;;
50291;SDS011;36190;54.980;73.388;2023-07-31T06:31:40;12.05;;;7.03;;
50291;SDS011;36190;54.980;73.388;2023-07-31T06:34:08;10.57;;;6.35;;
50291;SDS011;36190;54.980;73.388;2023-07-31T06:36:37;12.07;;;5.90;;
50291;SDS011;36190;54.980;73.388;2023-07-31T06:39:04;10.60;;;6.18;;
50291;SDS011;36190;54.980;73.388;2023-07-31T06:41:32;10.20;;;6.25;;
50291;SDS011;36190;54.980;73.388;2023-07-31T06:43:59;16.92;;;10.27;;
50291;SDS011;36190;54.980;73.388;2023-07-31T06:46:27;13.60;;;7.35;;
50291;SDS011;36190;54.980;73.388;2023-07-31T06:48:54;11.18;;;6.82;;
50291;SDS011;36190;54.980;73.388;2023-07-31T06:51:22;10.85;;;6.13;;
50291;SDS011;36190;54.980;73.388;2023-07-31T06:53:50;9.57;;;6.18;;
50291;SDS011;36190;54.980;73.388;2023-07-31T06:56:18;11.85;;;6.90;;
50291;SDS011;36190;54.980;73.388;2023-07-31T06:58:45;11.77;;;6.45;;
50291;SDS011;36190;54.980;73.388;2023-07-31T07:01:13;8.98;;;6.20;;
50291;SDS011;36190;54.980;73.388;2023-07-31T07:03:40;10.57;;;6.20;;
50291;SDS011;36190;54.980;73.388;2023-07-31T07:06:08;10.30;;;6.10;;
50291;SDS011;36190;54.980;73.388;2023-07-31T07:08:35;10.27;;;5.90;;
50291;SDS011;36190;54.980;73.388;2023-07-31T07:11:05;9.40;;;5.60;;
50291;SDS011;36190;54.980;73.388;2023-07-31T07:13:32;10.20;;;5.38;;
50291;SDS011;36190;54.980;73.388;2023-07-31T07:16:00;12.45;;;5.40;;
50291;SDS011;36190;54.980;73.388;2023-07-31T07:18:28;9.75;;;5.82;;
50291;SDS011;36190;54.980;73.388;2023-07-31T07:20:55;9.73;;;5.45;;
50291;SDS011;36190;54.980;73.388;2023-07-31T07:23:23;11.43;;;6.22;;
50291;SDS011;36190;54.980;73.388;2023-07-31T07:25:51;13.13;;;7.72;;
50291;SDS011;36190;54.980;73.388;2023-07-31T07:28:20;14.80;;;7.53;;
50291;SDS011;36190;54.980;73.388;2023-07-31T07:30:50;17.20;;;7.50;;
50291;SDS011;36190;54.980;73.388;2023-07-31T07:33:19;17.25;;;7.65;;
50291;SDS011;36190;54.980;73.388;2023-07-31T07:35:47;10.63;;;5.65;;
50291;SDS011;36190;54.980;73.388;2023-07-31T07:38:15;23.85;;;7.32;;
50291;SDS011;36190;54.980;73.388;2023-07-31T07:40:44;15.98;;;8.05;;
50291;SDS011;36190;54.980;73.388;2023-07-31T07:43:12;14.57;;;6.47;;
50291;SDS011;36190;54.980;73.388;2023-07-31T07:45:41;12.77;;;6.85;;
50291;SDS011;36190;54.980;73.388;2023-07-31T07:48:08;24.30;;;8.60;;
50291;SDS011;36190;54.980;73.388;2023-07-31T07:50:38;16.60;;;7.20;;
50291;SDS011;36190;54.980;73.388;2023-07-31T07:53:08;14.40;;;7.35;;
50291;SDS011;36190;54.980;73.388;2023-07-31T07:55:36;14.10;;;6.70;;
50291;SDS011;36190;54.980;73.388;2023-07-31T07:58:04;14.40;;;7.72;;
50291;SDS011;36190;54.980;73.388;2023-07-31T08:00:31;16.77;;;7.90;;
50291;SDS011;36190;54.980;73.388;2023-07-31T08:03:00;17.70;;;8.73;;
50291;SDS011;36190;54.980;73.388;2023-07-31T08:05:28;13.75;;;8.20;;
50291;SDS011;36190;54.980;73.388;2023-07-31T08:07:59;14.65;;;8.23;;
50291;SDS011;36190;54.980;73.388;2023-07-31T08:10:26;12.98;;;7.95;;
50291;SDS011;36190;54.980;73.388;2023-07-31T08:12:54;17.30;;;8.32;;
50291;SDS011;36190;54.980;73.388;2023-07-31T08:15:21;17.40;;;8.52;;
50291;SDS011;36190;54.980;73.388;2023-07-31T08:17:49;16.58;;;9.15;;
50291;SDS011;36190;54.980;73.388;2023-07-31T08:20:18;15.98;;;8.80;;
50291;SDS011;36190;54.980;73.388;2023-07-31T08:22:46;16.33;;;8.45;;
50291;SDS011;36190;54.980;73.388;2023-07-31T08:25:13;16.15;;;8.50;;
50291;SDS011;36190;54.980;73.388;2023-07-31T08:27:42;18.00;;;8.77;;
50291;SDS011;36190;54.980;73.388;2023-07-31T08:30:11;17.08;;;8.98;;
50291;SDS011;36190;54.980;73.388;2023-07-31T08:32:38;16.17;;;7.95;;
50291;SDS011;36190;54.980;73.388;2023-07-31T08:35:06;18.33;;;9.13;;
50291;SDS011;36190;54.980;73.388;2023-07-31T08:37:35;12.15;;;7.63;;
50291;SDS011;36190;54.980;73.388;2023-07-31T08:40:05;14.48;;;7.38;;
50291;SDS011;36190;54.980;73.388;2023-07-31T08:42:33;15.82;;;7.80;;
50291;SDS011;36190;54.980;73.388;2023-07-31T08:45:01;14.98;;;8.23;;
50291;SDS011;36190;54.980;73.388;2023-07-31T08:47:31;13.63;;;7.90;;
50291;SDS011;36190;54.980;73.388;2023-07-31T08:49:59;13.85;;;8.07;;
50291;SDS011;36190;54.980;73.388;2023-07-31T08:52:27;15.63;;;8.10;;
50291;SDS011;36190;54.980;73.388;2023-07-31T08:54:56;15.20;;;8.45;;
50291;SDS011;36190;54.980;73.388;2023-07-31T08:57:24;18.02;;;7.72;;
50291;SDS011;36190;54.980;73.388;2023-07-31T08:59:53;16.30;;;8.27;;
50291;SDS011;36190;54.980;73.388;2023-07-31T09:02:23;19.67;;;8.65;;
50291;SDS011;36190;54.980;73.388;2023-07-31T09:04:55;15.73;;;8.37;;
50291;SDS011;36190;54.980;73.388;2023-07-31T09:07:23;14.38;;;7.88;;
50291;SDS011;36190;54.980;73.388;2023-07-31T09:09:51;15.45;;;9.05;;
50291;SDS011;36190;54.980;73.388;2023-07-31T09:12:20;12.68;;;8.18;;
50291;SDS011;36190;54.980;73.388;2023-07-31T09:14:48;15.02;;;8.25;;
50291;SDS011;36190;54.980;73.388;2023-07-31T09:17:15;15.27;;;7.82;;
50291;SDS011;36190;54.980;73.388;2023-07-31T09:19:54;15.48;;;8.15;;
50291;SDS011;36190;54.980;73.388;2023-07-31T09:22:30;16.33;;;8.30;;
50291;SDS011;36190;54.980;73.388;2023-07-31T09:25:04;13.98;;;7.70;;
50291;SDS011;36190;54.980;73.388;2023-07-31T09:27:50;14.05;;;7.72;;
50291;SDS011;36190;54.980;73.388;2023-07-31T09:30:20;12.90;;;7.22;;
50291;SDS011;36190;54.980;73.388;2023-07-31T09:32:48;13.27;;;7.47;;
50291;SDS011;36190;54.980;73.388;2023-07-31T09:35:20;13.27;;;7.72;;
50291;SDS011;36190;54.980;73.388;2023-07-31T09:37:49;14.10;;;7.72;;
50291;SDS011;36190;54.980;73.388;2023-07-31T09:40:27;14.45;;;7.65;;
50291;SDS011;36190;54.980;73.388;2023-07-31T09:42:58;10.52;;;6.85;;
50291;SDS011;36190;54.980;73.388;2023-07-31T09:45:26;11.50;;;7.45;;
50291;SDS011;36190;54.980;73.388;2023-07-31T09:47:54;9.70;;;5.15;;
50291;SDS011;36190;54.980;73.388;2023-07-31T09:50:22;9.18;;;4.75;;
50291;SDS011;36190;54.980;73.388;2023-07-31T09:52:51;8.65;;;4.40;;
50291;SDS011;36190;54.980;73.388;2023-07-31T09:55:19;11.50;;;5.35;;
50291;SDS011;36190;54.980;73.388;2023-07-31T09:57:47;10.13;;;4.75;;
50291;SDS011;36190;54.980;73.388;2023-07-31T10:00:17;9.68;;;5.10;;
50291;SDS011;36190;54.980;73.388;2023-07-31T10:02:47;10.50;;;5.23;;
50291;SDS011;36190;54.980;73.388;2023-07-31T10:05:17;8.75;;;4.47;;
50291;SDS011;36190;54.980;73.388;2023-07-31T10:07:51;10.05;;;4.88;;
50291;SDS011;36190;54.980;73.388;2023-07-31T10:10:22;7.50;;;4.20;;
50291;SDS011;36190;54.980;73.388;2023-07-31T10:12:50;8.65;;;4.53;;
50291;SDS011;36190;54.980;73.388;2023-07-31T10:15:21;8.95;;;4.80;;
50291;SDS011;36190;54.980;73.388;2023-07-31T10:17:49;8.65;;;4.47;;
50291;SDS011;36190;54.980;73.388;2023-07-31T10:20:17;8.23;;;4.43;;
50291;SDS011;36190;54.980;73.388;2023-07-31T10:22:45;7.35;;;4.28;;
50291;SDS011;36190;54.980;73.388;2023-07-31T10:25:13;7.78;;;4.15;;
50291;SDS011;36190;54.980;73.388;2023-07-31T10:27:43;7.95;;;4.22;;
50291;SDS011;36190;54.980;73.388;2023-07-31T10:30:12;8.48;;;4.20;;
50291;SDS011;36190;54.980;73.388;2023-07-31T10:32:43;9.27;;;4.57;;
50291;SDS011;36190;54.980;73.388;2023-07-31T10:35:14;9.10;;;4.72;;
50291;SDS011;36190;54.980;73.388;2023-07-31T10:37:42;8.50;;;4.53;;
50291;SDS011;36190;54.980;73.388;2023-07-31T10:40:11;8.63;;;4.47;;
50291;SDS011;36190;54.980;73.388;2023-07-31T10:42:45;9.77;;;4.57;;
50291;SDS011;36190;54.980;73.388;2023-07-31T10:45:14;10.80;;;5.07;;
50291;SDS011;36190;54.980;73.388;2023-07-31T10:47:59;8.70;;;4.57;;
50291;SDS011;36190;54.980;73.388;2023-07-31T10:50:27;8.75;;;4.45;;
50291;SDS011;36190;54.980;73.388;2023-07-31T10:52:58;8.40;;;4.68;;
50291;SDS011;36190;54.980;73.388;2023-07-31T10:55:27;9.00;;;4.68;;
50291;SDS011;36190;54.980;73.388;2023-07-31T10:57:56;7.85;;;4.80;;
50291;SDS011;36190;54.980;73.388;2023-07-31T11:00:26;8.80;;;4.75;;
50291;SDS011;36190;54.980;73.388;2023-07-31T11:03:00;11.40;;;5.05;;
50291;SDS011;36190;54.980;73.388;2023-07-31T11:05:42;9.05;;;5.10;;
50291;SDS011;36190;54.980;73.388;2023-07-31T11:08:12;8.90;;;4.40;;
50291;SDS011;36190;54.980;73.388;2023-07-31T11:10:40;10.80;;;4.70;;
50291;SDS011;36190;54.980;73.388;2023-07-31T11:13:08;9.77;;;4.93;;
50291;SDS011;36190;54.980;73.388;2023-07-31T11:15:36;9.95;;;5.38;;
50291;SDS011;36190;54.980;73.388;2023-07-31T11:18:05;11.63;;;4.78;;
50291;SDS011;36190;54.980;73.388;2023-07-31T11:20:33;11.23;;;5.20;;
50291;SDS011;36190;54.980;73.388;2023-07-31T11:23:02;9.98;;;4.53;;
50291;SDS011;36190;54.980;73.388;2023-07-31T11:25:32;9.65;;;4.90;;
50291;SDS011;36190;54.980;73.388;2023-07-31T11:28:02;8.98;;;4.70;;
50291;SDS011;36190;54.980;73.388;2023-07-31T11:30:31;9.68;;;5.00;;
50291;SDS011;36190;54.980;73.388;2023-07-31T11:32:59;8.90;;;4.32;;
50291;SDS011;36190;54.980;73.388;2023-07-31T11:35:31;10.60;;;5.00;;
50291;SDS011;36190;54.980;73.388;2023-07-31T11:37:59;8.32;;;5.05;;
50291;SDS011;36190;54.980;73.388;2023-07-31T11:40:27;11.57;;;5.05;;
50291;SDS011;36190;54.980;73.388;2023-07-31T11:42:58;8.85;;;4.90;;
50291;SDS011;36190;54.980;73.388;2023-07-31T11:45:30;8.35;;;4.38;;
50291;SDS011;36190;54.980;73.388;2023-07-31T11:47:58;7.88;;;4.63;;
50291;SDS011;36190;54.980;73.388;2023-07-31T11:50:26;7.13;;;4.43;;
50291;SDS011;36190;54.980;73.388;2023-07-31T11:52:57;13.25;;;5.10;;
50291;SDS011;36190;54.980;73.388;2023-07-31T11:55:30;9.95;;;5.30;;
50291;SDS011;36190;54.980;73.388;2023-07-31T11:57:58;11.60;;;5.13;;
50291;SDS011;36190;54.980;73.388;2023-07-31T12:00:26;10.55;;;4.80;;
50291;SDS011;36190;54.980;73.388;2023-07-31T12:02:55;7.97;;;4.47;;
50291;SDS011;36190;54.980;73.388;2023-07-31T12:05:23;7.47;;;3.90;;
50291;SDS011;36190;54.980;73.388;2023-07-31T12:07:51;9.73;;;5.15;;
50291;SDS011;36190;54.980;73.388;2023-07-31T12:10:24;7.97;;;4.55;;
50291;SDS011;36190;54.980;73.388;2023-07-31T12:12:56;15.52;;;5.47;;
50291;SDS011;36190;54.980;73.388;2023-07-31T12:15:34;11.57;;;5.05;;
50291;SDS011;36190;54.980;73.388;2023-07-31T12:18:07;8.93;;;4.60;;
50291;SDS011;36190;54.980;73.388;2023-07-31T12:23:07;8.43;;;4.60;;
50291;SDS011;36190;54.980;73.388;2023-07-31T12:25:41;10.88;;;4.60;;
50291;SDS011;36190;54.980;73.388;2023-07-31T12:28:08;9.00;;;4.70;;
50291;SDS011;36190;54.980;73.388;2023-07-31T12:30:38;13.88;;;5.10;;
50291;SDS011;36190;54.980;73.388;2023-07-31T12:33:07;9.15;;;4.63;;
50291;SDS011;36190;54.980;73.388;2023-07-31T12:35:40;10.65;;;4.72;;
50291;SDS011;36190;54.980;73.388;2023-07-31T12:38:09;8.70;;;4.95;;
50291;SDS011;36190;54.980;73.388;2023-07-31T12:40:38;8.48;;;4.32;;
50291;SDS011;36190;54.980;73.388;2023-07-31T12:43:08;10.77;;;4.80;;
50291;SDS011;36190;54.980;73.388;2023-07-31T12:45:35;14.38;;;5.18;;
50291;SDS011;36190;54.980;73.388;2023-07-31T12:48:03;11.57;;;4.80;;
50291;SDS011;36190;54.980;73.388;2023-07-31T12:50:31;10.23;;;4.88;;
50291;SDS011;36190;54.980;73.388;2023-07-31T12:52:58;10.43;;;5.40;;
50291;SDS011;36190;54.980;73.388;2023-07-31T12:55:25;11.73;;;5.40;;
50291;SDS011;36190;54.980;73.388;2023-07-31T12:57:53;12.73;;;6.45;;
50291;SDS011;36190;54.980;73.388;2023-07-31T13:00:22;15.25;;;6.30;;
50291;SDS011;36190;54.980;73.388;2023-07-31T13:02:51;13.13;;;6.38;;
50291;SDS011;36190;54.980;73.388;2023-07-31T13:05:18;12.13;;;6.00;;
50291;SDS011;36190;54.980;73.388;2023-07-31T13:07:46;15.30;;;5.95;;
50291;SDS011;36190;54.980;73.388;2023-07-31T13:10:14;9.85;;;5.00;;
50291;SDS011;36190;54.980;73.388;2023-07-31T13:12:41;11.45;;;4.90;;
50291;SDS011;36190;54.980;73.388;2023-07-31T13:15:09;9.48;;;4.22;;
50291;SDS011;36190;54.980;73.388;2023-07-31T13:17:38;9.50;;;4.40;;
50291;SDS011;36190;54.980;73.388;2023-07-31T13:20:06;9.10;;;4.00;;
50291;SDS011;36190;54.980;73.388;2023-07-31T13:22:34;8.80;;;4.40;;
50291;SDS011;36190;54.980;73.388;2023-07-31T13:25:02;8.25;;;4.38;;
50291;SDS011;36190;54.980;73.388;2023-07-31T13:27:30;11.90;;;4.97;;
50291;SDS011;36190;54.980;73.388;2023-07-31T13:29:58;18.52;;;8.07;;
50291;SDS011;36190;54.980;73.388;2023-07-31T13:32:25;19.38;;;8.60;;
50291;SDS011;36190;54.980;73.388;2023-07-31T13:34:54;23.88;;;8.90;;
50291;SDS011;36190;54.980;73.388;2023-07-31T13:37:22;15.40;;;8.02;;
50291;SDS011;36190;54.980;73.388;2023-07-31T13:39:49;14.95;;;8.52;;
50291;SDS011;36190;54.980;73.388;2023-07-31T13:42:16;17.35;;;7.70;;
50291;SDS011;36190;54.980;73.388;2023-07-31T13:44:44;16.67;;;8.45;;
50291;SDS011;36190;54.980;73.388;2023-07-31T13:47:11;13.40;;;7.53;;
50291;SDS011;36190;54.980;73.388;2023-07-31T13:49:39;11.52;;;6.90;;
50291;SDS011;36190;54.980;73.388;2023-07-31T13:52:10;18.65;;;7.88;;
50291;SDS011;36190;54.980;73.388;2023-07-31T13:54:37;10.98;;;6.32;;
50291;SDS011;36190;54.980;73.388;2023-07-31T13:57:05;13.20;;;6.95;;
50291;SDS011;36190;54.980;73.388;2023-07-31T13:59:33;14.38;;;6.65;;
50291;SDS011;36190;54.980;73.388;2023-07-31T14:02:02;10.68;;;6.70;;
50291;SDS011;36190;54.980;73.388;2023-07-31T14:04:29;13.57;;;6.60;;
50291;SDS011;36190;54.980;73.388;2023-07-31T14:06:57;12.27;;;6.80;;
50291;SDS011;36190;54.980;73.388;2023-07-31T14:09:26;13.38;;;6.55;;
50291;SDS011;36190;54.980;73.388;2023-07-31T14:11:53;10.45;;;6.10;;
50291;SDS011;36190;54.980;73.388;2023-07-31T14:14:21;11.00;;;6.10;;
50291;SDS011;36190;54.980;73.388;2023-07-31T14:16:48;10.95;;;6.38;;
50291;SDS011;36190;54.980;73.388;2023-07-31T14:19:16;18.08;;;7.18;;
50291;SDS011;36190;54.980;73.388;2023-07-31T14:21:44;14.80;;;6.80;;
50291;SDS011;36190;54.980;73.388;2023-07-31T14:24:11;11.65;;;6.53;;
50291;SDS011;36190;54.980;73.388;2023-07-31T14:26:40;13.25;;;6.40;;
50291;SDS011;36190;54.980;73.388;2023-07-31T14:29:07;10.00;;;6.18;;
50291;SDS011;36190;54.980;73.388;2023-07-31T14:31:35;13.35;;;6.70;;